Time;durP1;ratioP1;P1;durP2;ratioP2;P2;SDS_P1;SDS_P2;PMS_P1;PMS_P2;Temp;Humidity;BMP_temperature;BMP_pressure;BME280_temperature;BME280_humidity;BME280_pressure;Samples;Min_cycle;Max_cycle;Signal;HPM_P1;HPM_P2
2022/12/14 00:02:02;;;;;;;8.30;5.72;;;-0.80;54.40;;;-2.49;60.16;100699.88;12171646;19;20025;-82
2022/12/14 00:06:16;;;;;;;10.18;5.63;;;-0.80;54.40;;;-2.54;60.17;100692.22;12172222;19;20031;-82
2022/12/14 00:10:19;;;;;;;9.68;6.30;;;-0.80;54.40;;;-2.43;60.21;100707.53;12166116;19;20022;-82
2022/12/14 00:14:21;;;;;;;11.82;7.20;;;-0.80;54.30;;;-2.49;60.11;100703.25;12172018;19;20313;-82
2022/12/14 00:18:23;;;;;;;8.55;5.18;;;-0.80;54.20;;;-2.61;60.08;100687.13;12165553;19;20045;-82
2022/12/14 00:22:25;;;;;;;11.60;6.43;;;-0.90;54.10;;;-2.58;60.29;100695.63;12187108;19;20025;-83
2022/12/14 00:26:31;;;;;;;8.93;6.82;;;-0.90;54.00;;;-2.77;59.88;100676.91;12190274;19;20753;-82
2022/12/14 00:30:33;;;;;;;9.85;6.38;;;-1.00;53.80;;;-2.77;60.01;100676.91;12180856;19;20035;-83
2022/12/14 00:34:35;;;;;;;10.27;6.10;;;-1.00;53.90;;;-2.76;60.29;100688.81;12188123;19;20028;-83
2022/12/14 00:38:37;;;;;;;10.75;6.55;;;-1.10;53.90;;;-2.93;60.30;100659.91;12186180;19;20026;-83
2022/12/14 00:42:39;;;;;;;9.88;5.93;;;-1.20;54.00;;;-2.95;60.32;100651.38;12192931;19;20513;-83
2022/12/14 00:46:41;;;;;;;8.40;5.65;;;-1.10;54.20;;;-2.95;60.41;100656.50;12192955;19;20440;-82
2022/12/14 00:50:45;;;;;;;9.05;6.40;;;-1.20;54.20;;;-2.79;60.21;100686.28;12190771;19;20021;-83
2022/12/14 00:54:47;;;;;;;10.90;6.67;;;-1.00;54.30;;;-2.81;60.35;100682.88;12185321;19;20066;-82
2022/12/14 00:58:53;;;;;;;10.55;6.32;;;-1.20;54.10;;;-2.91;60.23;100674.38;12198902;19;20052;-82
2022/12/14 01:02:54;;;;;;;9.57;6.43;;;-1.20;54.10;;;-2.86;60.09;100683.72;12205923;19;20298;-82
2022/12/14 01:06:56;;;;;;;9.27;5.80;;;-1.20;54.10;;;-2.90;60.41;100677.78;12195121;19;20023;-82
2022/12/14 01:10:58;;;;;;;11.48;7.15;;;-1.20;54.20;;;-2.90;60.21;100681.19;12187030;19;20026;-82
2022/12/14 01:15:00;;;;;;;11.18;6.40;;;-1.20;54.20;;;-2.92;60.27;100682.03;12184278;19;20007;-82
2022/12/14 01:19:02;;;;;;;10.57;6.60;;;-1.30;54.00;;;-3.13;60.22;100644.59;12181142;19;20558;-82
2022/12/14 01:23:03;;;;;;;8.50;5.65;;;-1.30;54.00;;;-3.03;60.21;100659.06;12175150;19;20026;-82
2022/12/14 01:27:05;;;;;;;9.85;5.65;;;-1.20;53.90;;;-3.04;60.29;100656.50;12175113;19;20070;-82
2022/12/14 01:31:17;;;;;;;12.80;5.90;;;-1.10;54.00;;;-3.24;60.18;100639.50;12177966;19;20018;-82
2022/12/14 01:35:19;;;;;;;8.25;5.22;;;-1.10;54.00;;;-3.17;60.22;100648.00;12192720;19;21119;-83
2022/12/14 01:39:21;;;;;;;9.05;5.82;;;-1.40;53.90;;;-3.15;60.25;100659.91;12188426;19;20051;-83
2022/12/14 01:43:23;;;;;;;10.23;6.53;;;-1.50;53.90;;;-3.25;60.28;100650.56;12191940;19;20037;-83
2022/12/14 01:47:43;;;;;;;10.50;6.25;;;-1.50;53.90;;;-3.24;60.10;100662.50;12191987;19;20018;-82
2022/12/14 01:52:06;;;;;;;11.55;6.38;;;-1.50;53.90;;;-3.46;60.17;100627.56;12184809;19;20015;-82
2022/12/14 01:56:07;;;;;;;10.02;6.18;;;-1.60;53.70;;;-3.40;60.18;100645.47;12188153;19;20029;-83
2022/12/14 02:00:13;;;;;;;9.77;5.75;;;-1.60;53.80;;;-3.42;60.17;100654.81;12177229;19;20022;-82
2022/12/14 02:04:16;;;;;;;11.75;6.03;;;-1.60;53.90;;;-3.46;60.06;100648.00;12189604;19;20383;-83
2022/12/14 02:08:19;;;;;;;11.20;7.05;;;-1.60;53.90;;;-3.58;60.13;100621.63;12192415;19;20018;-83
2022/12/14 02:12:34;;;;;;;9.43;6.35;;;-1.70;53.90;;;-3.60;60.18;100625.84;12189138;19;20276;-83
2022/12/14 02:16:36;;;;;;;9.63;6.45;;;-1.40;54.00;;;-3.52;60.12;100638.63;12187088;19;20142;-82
2022/12/14 02:21:28;;;;;;;9.55;6.10;;;-1.80;53.80;;;-3.63;60.17;100635.22;12191174;19;20022;-83
2022/12/14 02:25:52;;;;;;;9.32;5.95;;;-1.80;53.80;;;-3.57;60.30;100646.28;12202473;19;20017;-83
2022/12/14 02:30:18;;;;;;;9.82;6.38;;;-1.80;53.90;;;-3.72;60.17;100625.00;12195972;19;20027;-83
2022/12/14 02:34:51;;;;;;;7.30;4.90;;;-1.70;53.90;;;-3.74;60.31;100629.25;12195008;19;20317;-83
2022/12/14 02:39:06;;;;;;;9.55;5.97;;;-1.90;53.90;;;-3.64;60.29;100652.22;12199739;19;20783;-82
2022/12/14 02:43:45;;;;;;;9.70;5.22;;;-1.70;54.00;;;-3.65;60.26;100647.97;12200062;19;20693;-82
2022/12/14 02:48:21;;;;;;;10.48;5.60;;;-1.90;53.90;;;-3.74;60.24;100637.75;12195948;19;20022;-83
2022/12/14 02:52:35;;;;;;;8.82;5.70;;;-1.90;53.80;;;-3.72;60.31;100645.44;12191951;19;20010;-82
2022/12/14 02:56:55;;;;;;;9.77;5.97;;;-2.00;53.70;;;-3.89;60.19;100619.84;12195073;19;20878;-83
2022/12/14 03:00:57;;;;;;;10.60;5.70;;;-1.90;53.80;;;-4.17;60.06;100579.00;12193406;19;20018;-83
2022/12/14 03:05:01;;;;;;;10.18;6.15;;;-2.00;53.70;;;-3.96;60.00;100611.34;12197426;19;20019;-82
2022/12/14 03:09:15;;;;;;;7.22;5.32;;;-2.10;53.60;;;-3.96;59.93;100615.63;12198919;19;20113;-83
2022/12/14 03:13:52;;;;;;;7.85;5.60;;;-2.10;53.50;;;-4.11;60.00;100604.50;12193012;19;20121;-82
2022/12/14 03:18:01;;;;;;;9.75;6.13;;;-2.20;53.40;;;-4.07;59.92;100626.63;12194571;19;20108;-83
2022/12/14 03:22:10;;;;;;;11.98;6.18;;;-2.30;53.40;;;-4.39;59.99;100574.69;12190555;19;20392;-82
2022/12/14 03:26:29;;;;;;;9.48;5.88;;;-2.30;53.30;;;-4.39;60.05;100582.34;12193604;19;20018;-83
2022/12/14 03:30:36;;;;;;;9.70;6.07;;;-2.40;53.30;;;-4.66;59.95;100548.28;12190968;19;20459;-82
2022/12/14 03:35:16;;;;;;;8.95;5.40;;;-2.50;53.30;;;-4.33;59.89;100607.84;12197033;19;20419;-82
2022/12/14 03:39:28;;;;;;;9.70;5.70;;;-2.50;53.40;;;-4.35;60.03;100607.81;12190451;19;20015;-82
2022/12/14 03:43:50;;;;;;;10.05;6.05;;;-2.60;53.50;;;-4.37;59.98;100601.06;12196318;19;20011;-83
2022/12/14 03:48:00;;;;;;;9.85;6.25;;;-2.60;53.60;;;-4.41;60.02;100595.06;12200135;19;20950;-83
2022/12/14 03:52:41;;;;;;;9.57;5.72;;;-2.60;53.60;;;-4.63;60.07;100565.25;12193233;19;20374;-82
2022/12/14 03:57:12;;;;;;;9.07;5.32;;;-2.70;53.60;;;-4.50;60.05;100585.69;12193766;19;20399;-83
2022/12/14 04:01:48;;;;;;;9.32;5.43;;;-2.70;53.70;;;-4.53;60.13;100583.13;12192488;19;20668;-83
2022/12/14 04:06:26;;;;;;;7.45;5.78;;;-2.80;53.70;;;-4.63;60.11;100566.09;12197936;19;20033;-83
2022/12/14 04:19:40;;;;;;;9.15;5.43;;;-2.80;53.80;;;-4.67;60.13;100562.72;12210917;19;20291;-83
2022/12/14 04:32:39;;;;;;;9.68;6.40;;;-2.80;53.80;;;-4.69;60.26;100551.66;12202881;19;20091;-83
2022/12/14 04:36:54;;;;;;;8.48;5.38;;;-2.90;53.80;;;-4.76;60.23;100547.38;12196829;19;20442;-82
2022/12/14 04:41:04;;;;;;;9.05;6.28;;;-2.90;53.90;;;-4.79;60.21;100542.25;12193729;19;20433;-83
2022/12/14 04:45:17;;;;;;;8.30;5.03;;;-2.90;53.90;;;-4.76;60.17;100541.44;12196222;19;20070;-82
2022/12/14 04:49:42;;;;;;;7.63;5.60;;;-2.90;53.80;;;-4.71;60.25;100547.41;12190813;19;20014;-82
2022/12/14 04:53:49;;;;;;;7.80;5.10;;;-2.60;54.00;;;-4.68;60.30;100545.69;12194105;19;20856;-83
2022/12/14 04:57:58;;;;;;;8.18;5.90;;;-2.90;53.90;;;-4.65;60.32;100549.97;12190899;19;20055;-83
2022/12/14 05:02:09;;;;;;;7.50;5.20;;;-2.90;53.90;;;-4.66;60.28;100545.72;12188216;19;20610;-82
2022/12/14 05:06:16;;;;;;;8.00;5.60;;;-2.90;53.90;;;-4.72;60.29;100527.88;12194740;19;20690;-82
2022/12/14 05:11:06;;;;;;;13.93;6.47;;;-2.90;54.30;;;-4.68;60.18;100529.56;12191265;19;20369;-82
2022/12/14 05:15:26;;;;;;;6.95;5.25;;;-2.80;53.90;;;-4.90;60.22;100498.94;12189827;19;20015;-83
2022/12/14 05:19:27;;;;;;;10.55;6.78;;;-2.80;53.90;;;-4.77;60.33;100516.81;12177944;19;20045;-83
2022/12/14 05:23:29;;;;;;;8.73;5.28;;;-2.80;53.90;;;-4.80;60.13;100511.72;12168060;19;20015;-83
2022/12/14 05:27:31;;;;;;;9.23;6.10;;;-2.90;53.90;;;-4.69;60.30;100510.91;12170423;19;20579;-82
2022/12/14 05:31:33;;;;;;;9.02;6.20;;;-2.90;53.90;;;-4.79;60.23;100480.28;12171824;19;20028;-82
2022/12/14 05:35:35;;;;;;;9.48;6.13;;;-2.90;53.90;;;-4.89;60.28;100459.03;12167854;19;20018;-82
2022/12/14 05:39:36;;;;;;;10.50;5.82;;;-2.90;53.90;;;-4.74;60.33;100488.81;12160904;19;20010;-82
2022/12/14 05:43:38;;;;;;;8.00;5.68;;;-2.90;53.90;;;-4.93;60.30;100449.69;12157065;19;20026;-81
2022/12/14 05:47:41;;;;;;;10.23;6.30;;;-2.90;54.00;;;-4.75;60.31;100475.22;12156161;19;20021;-81
2022/12/14 05:51:42;;;;;;;11.48;6.07;;;-2.90;54.00;;;-4.76;60.35;100460.78;12121661;19;20632;-82
2022/12/14 05:55:49;;;;;;;8.68;5.43;;;-2.90;54.00;;;-4.77;60.31;100445.50;12137034;19;20021;-82
2022/12/14 05:59:51;;;;;;;9.27;5.97;;;-2.90;53.90;;;-4.74;60.37;100458.25;12130022;19;20022;-82
2022/12/14 06:03:53;;;;;;;9.75;5.55;;;-2.90;53.90;;;-4.76;60.10;100449.75;12138614;19;20418;-82
2022/12/14 06:07:55;;;;;;;10.52;5.93;;;-2.90;53.90;;;-4.83;60.18;100445.47;12140125;19;20010;-82
2022/12/14 06:11:57;;;;;;;10.35;6.05;;;-3.00;53.80;;;-4.87;60.31;100442.06;12150665;19;20019;-82
2022/12/14 06:16:29;;;;;;;9.55;6.00;;;-3.00;53.80;;;-4.83;60.34;100445.47;12156532;19;20538;-82
2022/12/14 06:20:31;;;;;;;8.65;6.43;;;-3.00;53.90;;;-4.89;60.25;100441.22;12158613;19;20280;-82
2022/12/14 06:24:33;;;;;;;10.52;6.05;;;-3.00;53.90;;;-4.86;60.41;100443.78;12157857;19;20402;-83
2022/12/14 06:28:36;;;;;;;9.68;5.57;;;-3.00;53.90;;;-4.98;60.34;100418.28;12151134;19;20022;-82
2022/12/14 06:32:38;;;;;;;12.20;6.57;;;-3.00;53.90;;;-4.85;60.23;100442.09;12149336;19;20348;-82
2022/12/14 06:36:41;;;;;;;10.23;6.53;;;-3.00;53.90;;;-4.88;60.26;100447.19;12149015;19;20042;-82
2022/12/14 06:40:43;;;;;;;11.18;5.95;;;-3.00;53.80;;;-4.92;60.29;100436.94;12137474;19;20018;-82
2022/12/14 06:44:45;;;;;;;9.70;5.78;;;-3.00;53.80;;;-4.98;60.28;100434.41;12134936;19;20336;-83
2022/12/14 06:48:52;;;;;;;8.68;5.40;;;-3.00;53.80;;;-4.94;60.21;100431.03;12133734;19;20121;-83
2022/12/14 06:52:54;;;;;;;9.63;6.80;;;-3.10;53.70;;;-4.96;60.18;100436.97;12129038;19;20439;-82
2022/12/14 06:56:56;;;;;;;8.15;6.20;;;-3.10;53.70;;;-5.01;60.39;100426.75;12128394;19;20302;-82
2022/12/14 07:01:08;;;;;;;8.95;5.93;;;-3.10;54.10;;;-5.01;60.24;100431.00;12100119;19;20304;-82
2022/12/14 07:05:09;;;;;;;9.27;5.68;;;-3.10;53.70;;;-5.10;60.20;100419.09;12105589;19;20035;-81
2022/12/14 07:09:13;;;;;;;12.05;7.32;;;-3.20;53.60;;;-5.12;60.27;100418.22;12093598;19;20018;-82
2022/12/14 07:13:14;;;;;;;13.05;7.10;;;-3.20;53.70;;;-5.16;60.24;100414.84;12108962;19;20288;-82
2022/12/14 07:17:16;;;;;;;9.20;6.47;;;-3.20;53.70;;;-5.11;60.23;100419.91;12102999;19;20409;-82
2022/12/14 07:21:20;;;;;;;8.35;5.60;;;-3.20;53.70;;;-5.12;60.30;100423.31;12105772;19;20849;-82
2022/12/14 07:25:22;;;;;;;9.52;6.43;;;-3.20;53.70;;;-5.13;60.32;100411.41;12122587;19;20283;-83
2022/12/14 07:29:24;;;;;;;8.48;6.90;;;-3.20;53.70;;;-5.20;60.29;100397.00;12129376;19;20002;-81
2022/12/14 07:33:27;;;;;;;10.23;6.65;;;-2.90;53.90;;;-5.20;60.33;100391.91;12130731;19;20086;-82
2022/12/14 07:37:29;;;;;;;7.78;5.85;;;-3.30;53.70;;;-5.18;60.20;100390.22;12119216;19;20724;-84
2022/12/14 07:41:31;;;;;;;9.07;6.07;;;-3.30;54.10;;;-5.26;60.31;100369.00;12129649;19;20320;-83
2022/12/14 07:45:33;;;;;;;10.65;6.03;;;-3.30;53.80;;;-5.25;60.30;100379.16;12150470;19;20404;-83
2022/12/14 07:49:34;;;;;;;11.02;7.07;;;-3.30;53.80;;;-5.26;60.35;100372.38;12129032;19;20014;-84
2022/12/14 07:53:37;;;;;;;8.43;5.75;;;-3.30;53.80;;;-5.22;60.29;100383.41;12131399;19;20483;-83
2022/12/14 07:57:39;;;;;;;10.55;6.45;;;-3.30;53.80;;;-5.22;60.34;100388.50;12125063;19;20021;-83
2022/12/14 08:01:42;;;;;;;11.15;6.53;;;-3.30;53.90;;;-5.33;60.35;100360.47;12128505;19;20019;-83
2022/12/14 08:05:44;;;;;;;11.23;6.10;;;-3.30;53.90;;;-5.15;60.33;100395.31;12139148;19;20902;-84
2022/12/14 08:09:47;;;;;;;8.57;5.80;;;-3.30;53.90;;;-5.14;60.42;100400.41;12129027;19;20485;-83
2022/12/14 08:14:18;;;;;;;10.82;6.90;;;-3.30;54.00;;;-5.12;60.26;100400.41;12129037;19;20268;-83
2022/12/14 08:18:20;;;;;;;10.10;5.55;;;-3.20;54.00;;;-5.14;60.40;100386.81;12121705;19;20014;-84
2022/12/14 08:22:21;;;;;;;9.75;6.22;;;-3.20;54.10;;;-5.07;60.48;100398.75;12143618;19;20018;-83
2022/12/14 08:26:25;;;;;;;11.48;6.88;;;-3.20;54.10;;;-5.06;60.50;100385.16;12144658;19;20473;-83
2022/12/14 08:30:27;;;;;;;10.18;6.65;;;-3.20;54.10;;;-5.05;60.55;100370.72;12142015;19;20033;-83
2022/12/14 08:34:28;;;;;;;9.60;6.00;;;-3.10;54.20;;;-4.96;60.55;100375.84;12137745;19;20416;-85
2022/12/14 08:38:30;;;;;;;10.77;6.95;;;-3.10;54.30;;;-4.93;60.51;100386.88;12125834;19;20025;-84
2022/12/14 08:42:32;;;;;;;9.48;5.68;;;-3.00;54.30;;;-4.97;60.59;100357.19;12135594;19;20383;-84
2022/12/14 08:46:38;;;;;;;12.77;7.32;;;-3.00;54.40;;;-4.93;60.58;100363.13;12156596;19;20014;-82
2022/12/14 08:50:39;;;;;;;9.68;6.68;;;-2.90;54.50;;;-4.99;60.68;100340.22;12145714;19;20018;-84
2022/12/14 08:54:42;;;;;;;10.57;7.07;;;-2.90;54.60;;;-4.85;60.63;100351.25;12144473;19;20593;-87
2022/12/14 08:58:44;;;;;;;12.43;6.72;;;-2.90;54.70;;;-4.76;60.68;100351.25;12139009;19;20309;-86
2022/12/14 09:02:53;;;;;;;10.85;6.88;;;-2.80;54.80;;;-4.87;60.67;100319.00;12138808;19;20667;-84
2022/12/14 09:06:55;;;;;;;10.25;6.55;;;-2.80;54.80;;;-4.61;60.70;100353.00;12126972;19;20300;-84
2022/12/14 09:10:57;;;;;;;9.57;6.43;;;-2.70;54.90;;;-4.57;60.77;100348.72;12117059;19;20276;-83
2022/12/14 09:14:59;;;;;;;10.52;6.82;;;-2.70;54.90;;;-4.54;60.84;100338.53;12122122;19;20372;-83
2022/12/14 09:19:01;;;;;;;9.57;6.32;;;-2.60;55.00;;;-4.41;60.91;100344.50;12132008;19;21165;-83
2022/12/14 09:23:03;;;;;;;10.20;6.13;;;-2.50;55.10;;;-4.40;60.89;100338.53;12129296;19;20446;-83
2022/12/14 09:27:05;;;;;;;10.25;6.97;;;-2.40;55.10;;;-4.30;60.90;100343.63;12127557;19;20396;-82
2022/12/14 09:31:12;;;;;;;9.57;6.38;;;-2.40;55.10;;;-4.31;60.99;100329.19;12124946;19;20486;-82
2022/12/14 09:35:15;;;;;;;11.50;7.32;;;-2.30;55.20;;;-4.17;60.94;100330.88;12131339;19;20692;-83
2022/12/14 09:39:16;;;;;;;12.07;7.82;;;-2.20;55.30;;;-4.11;61.04;100324.06;12123012;19;20870;-84
2022/12/14 09:43:42;;;;;;;10.43;7.63;;;-2.20;55.40;;;-4.24;60.97;100291.78;12130828;19;20018;-83
2022/12/14 09:48:04;;;;;;;9.30;6.03;;;-2.10;55.50;;;-3.98;61.06;100312.13;12151027;19;20359;-83
2022/12/14 09:52:15;;;;;;;11.02;7.07;;;-1.90;55.50;;;-3.97;61.07;100285.78;12126788;19;20292;-83
2022/12/14 09:56:19;;;;;;;9.25;6.82;;;-2.00;55.60;;;-3.89;61.32;100283.19;12115640;19;20399;-83
2022/12/14 10:00:21;;;;;;;12.48;7.95;;;-1.90;55.70;;;-3.85;61.13;100279.81;12119904;19;20486;-83
2022/12/14 10:04:49;;;;;;;11.25;6.70;;;-1.80;55.80;;;-3.65;61.12;100288.19;12126878;19;20461;-83
2022/12/14 10:09:18;;;;;;;12.48;7.18;;;-1.70;55.90;;;-3.57;61.25;100285.63;12120829;19;20019;-82
2022/12/14 10:13:52;;;;;;;10.00;6.28;;;-1.60;56.10;;;-3.54;61.24;100266.91;12121499;19;20018;-82
2022/12/14 10:17:59;;;;;;;8.90;5.72;;;-1.50;56.00;;;-3.40;61.24;100275.34;12125312;19;20387;-82
2022/12/14 10:22:37;;;;;;;9.40;6.00;;;-1.40;56.00;;;-3.37;61.32;100260.84;12132278;19;20555;-82
2022/12/14 10:26:52;;;;;;;9.48;6.22;;;-1.40;56.00;;;-3.26;61.27;100260.78;12127449;19;20026;-82
2022/12/14 10:30:56;;;;;;;;;;;-1.20;55.90;;;-3.34;61.38;100230.19;12125496;19;20295;-82
2022/12/14 10:35:01;;;;;;;8.00;5.18;;;-1.20;55.90;;;-3.14;61.35;100253.03;12126766;19;19915;-82
2022/12/14 10:39:32;;;;;;;9.52;6.18;;;-1.10;55.90;;;-3.18;61.33;100227.56;12126088;19;20299;-82
2022/12/14 10:44:02;;;;;;;9.63;6.50;;;-1.00;55.90;;;-3.07;61.39;100232.59;12139118;19;20014;-83
2022/12/14 10:48:30;;;;;;;10.82;6.10;;;-1.00;56.00;;;-2.92;61.41;100237.56;12135711;19;20376;-82
2022/12/14 10:52:40;;;;;;;8.55;5.55;;;-0.90;56.00;;;-2.84;61.42;100234.94;12136923;19;20280;-82
2022/12/14 10:56:44;;;;;;;17.27;6.28;;;-0.80;56.00;;;-2.86;61.48;100224.75;12136327;19;20407;-81
2022/12/14 11:00:53;;;;;;;9.07;6.18;;;-0.80;56.00;;;-2.75;61.46;100222.94;12135504;19;20011;-81
2022/12/14 11:05:02;;;;;;;12.50;7.22;;;-0.70;56.40;;;-2.63;61.51;100223.69;12146826;19;20431;-82
2022/12/14 11:09:21;;;;;;;11.65;6.75;;;-0.70;56.00;;;-2.61;61.60;100212.59;12169500;19;20276;-82
2022/12/14 11:13:23;;;;;;;11.40;7.43;;;-0.60;56.10;;;-2.60;61.47;100198.09;12175112;19;20074;-82
2022/12/14 11:17:40;;;;;;;12.93;7.47;;;-0.50;56.20;;;-2.58;61.54;100178.50;12167770;19;20968;-81
2022/12/14 11:21:43;;;;;;;12.27;8.52;;;-0.40;56.30;;;-2.40;61.52;100193.63;12149560;19;20015;-83
2022/12/14 11:25:48;;;;;;;12.13;7.05;;;-0.40;56.20;;;-2.65;61.55;100144.47;12153780;19;20019;-81
2022/12/14 11:29:50;;;;;;;12.45;7.07;;;-0.40;56.20;;;-2.35;61.48;100184.22;12147087;19;20807;-82
2022/12/14 11:33:57;;;;;;;12.23;7.68;;;-0.30;56.20;;;-2.36;61.58;100169.72;12149303;19;20826;-82
2022/12/14 11:37:59;;;;;;;11.75;6.43;;;-0.20;56.30;;;-2.38;61.61;100156.09;12143987;19;20296;-82
2022/12/14 11:42:03;;;;;;;14.35;8.48;;;-0.20;56.20;;;-2.10;61.57;100187.31;12144052;19;20010;-84
2022/12/14 11:46:05;;;;;;;13.68;8.18;;;-0.10;56.40;;;-2.04;61.42;100181.28;12124194;19;20018;-83
2022/12/14 11:50:23;;;;;;;12.48;7.35;;;0.00;56.40;;;-2.09;61.38;100162.59;12120113;19;20288;-83
2022/12/14 11:54:26;;;;;;;11.18;7.22;;;0.00;56.30;;;-2.00;61.62;100165.00;12127703;19;20508;-83
2022/12/14 11:58:44;;;;;;;9.07;6.65;;;0.00;56.30;;;-2.01;61.65;100153.94;12123891;19;20042;-83
2022/12/14 12:03:01;;;;;;;10.93;6.80;;;0.10;56.30;;;-1.79;61.52;100176.69;12126501;19;20295;-80
2022/12/14 12:07:19;;;;;;;11.95;7.43;;;0.40;56.40;;;-1.86;61.51;100144.38;12127910;19;20018;-83
2022/12/14 12:11:32;;;;;;;13.77;7.72;;;0.20;56.30;;;-1.82;61.63;100146.03;12120735;19;20719;-83
2022/12/14 12:15:39;;;;;;;11.82;8.10;;;0.30;56.30;;;-1.60;61.49;100164.47;12124349;19;20038;-83
2022/12/14 12:19:41;;;;;;;12.88;8.23;;;0.30;56.20;;;-1.56;61.52;100164.41;12125509;19;20099;-82
2022/12/14 12:23:48;;;;;;;10.38;7.20;;;0.40;56.30;;;-1.44;61.58;100165.94;12121318;19;20291;-82
2022/12/14 12:28:03;;;;;;;13.48;7.30;;;0.70;56.30;;;-1.46;61.56;100154.91;12126784;19;20411;-83
2022/12/14 12:32:26;;;;;;;11.80;7.90;;;0.50;56.20;;;-1.41;61.32;100157.38;12123916;19;20403;-83
2022/12/14 12:36:31;;;;;;;15.57;8.70;;;0.60;56.20;;;-1.34;61.47;100141.88;12147991;19;20385;-84
2022/12/14 12:40:49;;;;;;;12.43;7.75;;;0.60;56.20;;;-1.27;61.57;100154.59;12134446;19;20936;-82
2022/12/14 12:45:08;;;;;;;12.32;7.28;;;0.70;56.20;;;-1.33;61.53;100135.03;12122069;19;20015;-83
2022/12/14 12:49:14;;;;;;;15.00;8.25;;;0.70;56.10;;;-1.20;61.54;100145.94;12121765;19;20135;-82
2022/12/14 12:53:42;;;;;;;14.73;8.57;;;0.70;56.10;;;-1.24;61.59;100134.03;12127027;19;20790;-82
2022/12/14 12:57:49;;;;;;;13.15;8.13;;;0.70;56.00;;;-1.25;61.55;100132.34;12123650;19;20045;-81
2022/12/14 13:01:57;;;;;;;16.67;8.77;;;1.00;56.10;;;-1.33;61.42;100117.13;12122033;19;20295;-81
2022/12/14 13:06:28;;;;;;;14.15;7.53;;;0.80;55.90;;;-1.16;61.47;100145.00;12122430;19;20398;-81
2022/12/14 13:10:36;;;;;;;13.90;7.78;;;0.70;55.80;;;-1.16;61.44;100140.75;12122021;19;20703;-82
2022/12/14 13:14:43;;;;;;;11.32;7.32;;;0.70;55.80;;;-1.25;61.21;100125.50;12125135;19;20310;-83
2022/12/14 13:18:49;;;;;;;12.60;7.25;;;0.70;55.70;;;-1.20;61.41;100125.44;12114634;19;20033;-82
2022/12/14 13:22:52;;;;;;;11.10;6.32;;;0.70;55.70;;;-1.20;61.42;100130.56;12114481;19;20387;-82
2022/12/14 13:27:36;;;;;;;11.25;6.60;;;0.90;55.70;;;-1.17;61.27;100127.94;12108512;19;20492;-82
2022/12/14 13:31:52;;;;;;;12.10;7.30;;;0.70;55.50;;;-1.38;61.20;100088.16;12105308;19;20323;-83
2022/12/14 13:36:29;;;;;;;9.45;6.53;;;0.70;55.50;;;-1.27;61.27;100106.78;12105204;19;20021;-82
2022/12/14 13:41:14;;;;;;;11.05;7.03;;;0.70;55.50;;;-1.27;61.18;100123.84;12104425;19;20006;-82
2022/12/14 13:45:29;;;;;;;9.15;6.10;;;0.60;55.40;;;-1.29;61.13;100129.00;12110709;19;20830;-83
2022/12/14 13:49:32;;;;;;;13.82;7.13;;;0.50;55.40;;;-1.47;61.31;100086.63;12102509;19;20441;-82
2022/12/14 13:53:44;;;;;;;10.43;6.53;;;0.50;55.40;;;-1.31;61.23;100112.81;12103961;19;20026;-83
2022/12/14 13:57:46;;;;;;;14.85;7.93;;;0.50;55.40;;;-1.36;61.14;100107.75;12105006;19;20019;-82
2022/12/14 14:01:48;;;;;;;15.95;7.88;;;0.70;55.50;;;-1.31;61.11;100110.25;12104377;19;20382;-82
2022/12/14 14:05:59;;;;;;;12.65;6.55;;;0.50;55.30;;;-1.42;61.19;100086.56;12109600;19;20538;-83
2022/12/14 14:10:05;;;;;;;12.23;7.68;;;0.50;55.40;;;-1.42;61.15;100087.38;12107204;19;20021;-83
2022/12/14 14:14:34;;;;;;;11.68;7.20;;;0.50;55.30;;;-1.36;61.10;100078.75;12113382;19;20773;-82
2022/12/14 14:19:17;;;;;;;12.55;7.45;;;0.40;55.30;;;-1.38;61.09;100090.72;12122129;19;20387;-82
2022/12/14 14:23:21;;;;;;;12.48;8.02;;;0.40;55.30;;;-1.39;60.99;100077.09;12125861;19;20102;-83
2022/12/14 14:27:49;;;;;;;14.30;8.70;;;0.60;55.30;;;-1.54;60.99;100061.97;12125929;19;20712;-82
2022/12/14 14:31:58;;;;;;;13.57;7.80;;;0.30;55.10;;;-1.50;60.94;100058.50;12152250;19;20282;-83
2022/12/14 14:36:34;;;;;;;12.95;7.32;;;0.30;55.10;;;-1.61;60.96;100050.16;12156485;19;20404;-82
2022/12/14 14:40:37;;;;;;;12.40;7.70;;;0.30;55.10;;;-1.59;61.19;100051.00;12142123;19;20384;-83
2022/12/14 14:44:52;;;;;;;16.38;9.50;;;0.20;55.10;;;-1.67;60.99;100040.03;12135283;19;20023;-83
2022/12/14 14:48:54;;;;;;;19.25;11.48;;;0.20;55.00;;;-1.72;61.01;100039.25;12128260;19;20402;-83
2022/12/14 14:53:09;;;;;;;15.73;9.35;;;0.10;55.00;;;-1.71;60.83;100036.66;12126080;19;20480;-83
2022/12/14 14:57:53;;;;;;;15.03;8.53;;;0.00;55.00;;;-1.74;60.80;100036.72;12130003;19;20449;-83
2022/12/14 15:01:59;;;;;;;12.48;7.68;;;0.00;55.00;;;-1.92;60.92;100007.13;12119133;19;20814;-83
2022/12/14 15:06:01;;;;;;;15.52;9.10;;;0.10;55.10;;;-1.94;60.76;100014.00;12123072;19;20287;-83
2022/12/14 15:10:38;;;;;;;13.48;8.45;;;-0.10;54.90;;;-1.87;60.83;100042.88;12114935;19;20111;-83
2022/12/14 15:14:43;;;;;;;14.50;8.32;;;-0.20;54.80;;;-1.97;60.90;100029.41;12108681;19;20381;-83
2022/12/14 15:18:45;;;;;;;16.02;9.35;;;-0.10;54.90;;;-2.27;60.73;99988.09;12117539;19;20236;-83
2022/12/14 15:22:49;;;;;;;19.20;9.48;;;-0.10;54.90;;;-2.02;60.83;100018.41;12146485;19;20019;-83
2022/12/14 15:26:51;;;;;;;14.40;8.57;;;-0.20;54.90;;;-2.10;60.73;100023.63;12163471;19;21361;-83
2022/12/14 15:30:57;;;;;;;11.88;8.48;;;-0.20;54.90;;;-2.08;60.84;100021.91;12168571;19;20018;-83
2022/12/14 15:35:03;;;;;;;15.40;8.55;;;-0.10;54.90;;;-2.05;60.75;100033.81;12165220;19;20018;-83
2022/12/14 15:39:05;;;;;;;16.15;9.55;;;-0.30;54.90;;;-2.13;60.90;100033.03;12163564;19;20078;-83
2022/12/14 15:43:19;;;;;;;16.20;10.70;;;-0.30;54.80;;;-2.11;60.72;100047.50;12168310;19;20015;-84
2022/12/14 15:47:28;;;;;;;17.48;8.85;;;-0.40;54.80;;;-2.12;60.91;100045.81;12167342;19;20415;-83
2022/12/14 15:51:43;;;;;;;19.42;10.90;;;-0.40;54.80;;;-2.18;60.68;100034.84;12163984;19;20015;-83
2022/12/14 15:55:51;;;;;;;17.90;10.52;;;-0.40;54.80;;;-2.44;60.62;100000.25;12169377;19;20028;-83
2022/12/14 15:59:56;;;;;;;16.73;9.00;;;-0.50;54.70;;;-2.32;60.86;100014.56;12163874;19;20280;-83
2022/12/14 16:04:03;;;;;;;17.92;10.35;;;-0.60;54.70;;;-2.57;61.00;99986.78;12159174;19;20483;-82
2022/12/14 16:08:07;;;;;;;19.23;11.20;;;-0.50;54.80;;;-2.33;60.81;100021.38;12165912;19;20398;-83
2022/12/14 16:12:42;;;;;;;21.45;11.60;;;-0.60;54.80;;;-2.38;60.90;100023.16;12163597;19;20021;-83
2022/12/14 16:16:46;;;;;;;17.65;10.05;;;-0.50;54.90;;;-2.67;60.78;99967.34;12165839;19;20310;-83
2022/12/14 16:20:58;;;;;;;19.58;10.52;;;-0.60;54.90;;;-2.53;60.72;99985.88;12162212;19;20018;-83
2022/12/14 16:25:06;;;;;;;19.38;10.85;;;-0.50;55.00;;;-2.31;60.84;100019.66;12168224;19;20268;-83
2022/12/14 16:29:20;;;;;;;20.50;11.15;;;-0.60;54.90;;;-2.50;60.85;99988.41;12166281;19;20294;-83
2022/12/14 16:33:23;;;;;;;18.58;9.90;;;-0.60;54.80;;;-2.41;60.82;100012.97;12166096;19;20014;-83
2022/12/14 16:37:26;;;;;;;20.33;11.43;;;-0.60;54.80;;;-2.37;60.61;100029.16;12164990;19;20022;-83
2022/12/14 16:41:36;;;;;;;20.23;10.68;;;-0.60;54.80;;;-2.43;60.73;100022.41;12160572;19;20508;-83
2022/12/14 16:46:13;;;;;;;20.83;10.93;;;-0.50;54.80;;;-2.47;60.72;100013.06;12166769;19;20148;-83
2022/12/14 16:50:23;;;;;;;19.98;10.25;;;-0.70;54.70;;;-2.61;60.75;99987.69;12163940;19;20450;-83
2022/12/14 16:54:31;;;;;;;21.88;11.23;;;-0.70;54.70;;;-2.53;60.83;100013.16;12165250;19;20023;-85
2022/12/14 16:58:36;;;;;;;19.55;10.98;;;-0.70;54.70;;;-2.58;60.74;100009.81;12165027;19;20852;-83
2022/12/14 17:02:45;;;;;;;20.08;10.82;;;-0.70;54.70;;;-2.58;60.87;100017.50;12165574;19;20081;-83
2022/12/14 17:06:52;;;;;;;22.58;10.75;;;-0.80;54.70;;;-2.51;60.69;100027.63;12166397;19;20019;-84
2022/12/14 17:10:54;;;;;;;16.63;9.93;;;-0.60;54.80;;;-2.51;60.79;100030.16;12161803;19;20893;-83
2022/12/14 17:14:55;;;;;;;20.33;11.43;;;-0.70;54.80;;;-2.78;60.93;99980.28;12161689;19;20740;-83
2022/12/14 17:18:57;;;;;;;21.83;10.85;;;-0.70;54.80;;;-2.60;60.75;100022.59;12183620;19;20402;-84
2022/12/14 17:23:00;;;;;;;20.13;10.95;;;-0.80;54.70;;;-2.58;60.70;100025.16;12188744;19;20104;-83